sensor_id;sensor_type;location;lat;lon;timestamp;pressure;altitude;pressure_sealevel;temperature;humidity
64628;BME280;68467;50.960;0.314;2023-04-07T00:01:51;100081.54;;;4.32;100.00
64628;BME280;68467;50.960;0.314;2023-04-07T00:04:19;100077.06;;;4.47;100.00
64628;BME280;68467;50.960;0.314;2023-04-07T00:06:46;100078.24;;;4.93;100.00
64628;BME280;68467;50.960;0.314;2023-04-07T00:09:13;100074.74;;;4.49;100.00
64628;BME280;68467;50.960;0.314;2023-04-07T00:11:40;100076.74;;;4.68;100.00
64628;BME280;68467;50.960;0.314;2023-04-07T00:14:08;100079.87;;;4.71;100.00
64628;BME280;68467;50.960;0.314;2023-04-07T00:16:35;100084.75;;;4.62;100.00
64628;BME280;68467;50.960;0.314;2023-04-07T00:19:03;100086.59;;;4.10;100.00
64628;BME280;68467;50.960;0.314;2023-04-07T00:21:30;100083.22;;;4.53;100.00
64628;BME280;68467;50.960;0.314;2023-04-07T00:23:58;100084.07;;;4.53;100.00
64628;BME280;68467;50.960;0.314;2023-04-07T00:26:25;100083.86;;;4.48;100.00
64628;BME280;68467;50.960;0.314;2023-04-07T00:28:52;100087.47;;;3.98;100.00
64628;BME280;68467;50.960;0.314;2023-04-07T00:31:19;100090.66;;;4.49;100.00
64628;BME280;68467;50.960;0.314;2023-04-07T00:33:47;100090.51;;;4.34;100.00
64628;BME280;68467;50.960;0.314;2023-04-07T00:36:16;100090.37;;;4.39;100.00
64628;BME280;68467;50.960;0.314;2023-04-07T00:38:44;100092.22;;;3.89;100.00
64628;BME280;68467;50.960;0.314;2023-04-07T00:41:11;100096.05;;;3.95;100.00
64628;BME280;68467;50.960;0.314;2023-04-07T00:43:39;100094.34;;;4.06;100.00
64628;BME280;68467;50.960;0.314;2023-04-07T00:46:06;100096.56;;;4.11;100.00
64628;BME280;68467;50.960;0.314;2023-04-07T00:48:33;100095.99;;;4.21;100.00
64628;BME280;68467;50.960;0.314;2023-04-07T00:51:03;100092.80;;;4.46;100.00
64628;BME280;68467;50.960;0.314;2023-04-07T00:53:31;100093.41;;;4.21;100.00
64628;BME280;68467;50.960;0.314;2023-04-07T00:55:59;100089.85;;;4.40;100.00
64628;BME280;68467;50.960;0.314;2023-04-07T00:58:26;100095.41;;;4.37;100.00
64628;BME280;68467;50.960;0.314;2023-04-07T01:01:02;100095.81;;;4.20;100.00
64628;BME280;68467;50.960;0.314;2023-04-07T01:03:38;100092.65;;;4.22;100.00
64628;BME280;68467;50.960;0.314;2023-04-07T01:06:08;100092.87;;;5.10;100.00
64628;BME280;68467;50.960;0.314;2023-04-07T01:08:50;100096.20;;;4.72;100.00
64628;BME280;68467;50.960;0.314;2023-04-07T01:11:29;100096.02;;;4.64;100.00
64628;BME280;68467;50.960;0.314;2023-04-07T01:13:59;100102.36;;;4.28;100.00
64628;BME280;68467;50.960;0.314;2023-04-07T01:16:30;100100.31;;;4.75;100.00
64628;BME280;68467;50.960;0.314;2023-04-07T01:19:03;100102.62;;;4.61;100.00
64628;BME280;68467;50.960;0.314;2023-04-07T01:21:36;100103.19;;;5.12;100.00
64628;BME280;68467;50.960;0.314;2023-04-07T01:24:31;100103.48;;;5.61;100.00
64628;BME280;68467;50.960;0.314;2023-04-07T01:27:10;100113.87;;;4.13;100.00
64628;BME280;68467;50.960;0.314;2023-04-07T01:29:41;100111.02;;;5.17;100.00
64628;BME280;68467;50.960;0.314;2023-04-07T01:32:10;100110.69;;;4.85;100.00
64628;BME280;68467;50.960;0.314;2023-04-07T01:34:40;100112.51;;;4.62;100.00
64628;BME280;68467;50.960;0.314;2023-04-07T01:37:08;100114.35;;;4.07;100.00
64628;BME280;68467;50.960;0.314;2023-04-07T01:39:37;100116.11;;;3.87;100.00
64628;BME280;68467;50.960;0.314;2023-04-07T01:42:06;100114.81;;;3.93;100.00
64628;BME280;68467;50.960;0.314;2023-04-07T01:44:34;100112.85;;;4.07;100.00
64628;BME280;68467;50.960;0.314;2023-04-07T01:47:02;100109.28;;;3.80;100.00
64628;BME280;68467;50.960;0.314;2023-04-07T01:49:31;100106.44;;;4.07;100.00
64628;BME280;68467;50.960;0.314;2023-04-07T01:51:59;100105.98;;;4.21;100.00
64628;BME280;68467;50.960;0.314;2023-04-07T01:54:27;100102.02;;;3.79;100.00
64628;BME280;68467;50.960;0.314;2023-04-07T01:56:55;100101.01;;;4.27;100.00
64628;BME280;68467;50.960;0.314;2023-04-07T01:59:22;100105.05;;;3.78;100.00
64628;BME280;68467;50.960;0.314;2023-04-07T02:01:49;100102.20;;;4.05;100.00
64628;BME280;68467;50.960;0.314;2023-04-07T02:04:23;100105.11;;;3.75;100.00
64628;BME280;68467;50.960;0.314;2023-04-07T02:06:55;100103.28;;;3.98;100.00
64628;BME280;68467;50.960;0.314;2023-04-07T02:09:26;100103.22;;;3.49;100.00
64628;BME280;68467;50.960;0.314;2023-04-07T02:11:57;100102.32;;;4.40;100.00
64628;BME280;68467;50.960;0.314;2023-04-07T02:14:26;100103.95;;;4.45;100.00
64628;BME280;68467;50.960;0.314;2023-04-07T02:16:54;100101.86;;;4.40;100.00
64628;BME280;68467;50.960;0.314;2023-04-07T02:19:21;100105.07;;;3.66;100.00
64628;BME280;68467;50.960;0.314;2023-04-07T02:21:50;100101.76;;;4.43;100.00
64628;BME280;68467;50.960;0.314;2023-04-07T02:24:18;100106.97;;;3.73;100.00
64628;BME280;68467;50.960;0.314;2023-04-07T02:26:45;100109.77;;;3.72;100.00
64628;BME280;68467;50.960;0.314;2023-04-07T02:29:13;100108.68;;;4.69;100.00
64628;BME280;68467;50.960;0.314;2023-04-07T02:31:40;100107.80;;;3.60;100.00
64628;BME280;68467;50.960;0.314;2023-04-07T02:34:08;100106.51;;;4.73;100.00
64628;BME280;68467;50.960;0.314;2023-04-07T02:36:35;100103.55;;;4.79;100.00
64628;BME280;68467;50.960;0.314;2023-04-07T02:39:02;100105.53;;;4.14;100.00
64628;BME280;68467;50.960;0.314;2023-04-07T02:41:30;100108.01;;;4.21;100.00
64628;BME280;68467;50.960;0.314;2023-04-07T02:43:57;100111.28;;;4.54;100.00
64628;BME280;68467;50.960;0.314;2023-04-07T02:46:24;100107.50;;;3.95;100.00
64628;BME280;68467;50.960;0.314;2023-04-07T02:48:51;100107.25;;;3.38;100.00
64628;BME280;68467;50.960;0.314;2023-04-07T02:51:18;100105.17;;;3.98;100.00
64628;BME280;68467;50.960;0.314;2023-04-07T02:53:46;100104.84;;;4.01;100.00
64628;BME280;68467;50.960;0.314;2023-04-07T02:56:13;100107.70;;;3.62;100.00
64628;BME280;68467;50.960;0.314;2023-04-07T02:58:41;100106.10;;;3.32;100.00
64628;BME280;68467;50.960;0.314;2023-04-07T03:01:08;100102.98;;;3.92;100.00
64628;BME280;68467;50.960;0.314;2023-04-07T03:03:35;100103.29;;;3.99;100.00
64628;BME280;68467;50.960;0.314;2023-04-07T03:06:02;100103.74;;;3.33;100.00
64628;BME280;68467;50.960;0.314;2023-04-07T03:08:29;100106.01;;;3.30;100.00
64628;BME280;68467;50.960;0.314;2023-04-07T03:10:57;100105.88;;;3.10;100.00
64628;BME280;68467;50.960;0.314;2023-04-07T03:13:24;100112.34;;;3.67;100.00
64628;BME280;68467;50.960;0.314;2023-04-07T03:15:51;100114.17;;;3.87;100.00
64628;BME280;68467;50.960;0.314;2023-04-07T03:18:18;100113.85;;;4.16;100.00
64628;BME280;68467;50.960;0.314;2023-04-07T03:20:47;100116.17;;;4.08;100.00
64628;BME280;68467;50.960;0.314;2023-04-07T03:23:14;100118.58;;;4.69;100.00
64628;BME280;68467;50.960;0.314;2023-04-07T03:25:42;100123.41;;;4.12;100.00
64628;BME280;68467;50.960;0.314;2023-04-07T03:28:09;100124.27;;;4.13;100.00
64628;BME280;68467;50.960;0.314;2023-04-07T03:30:36;100123.38;;;4.01;100.00
64628;BME280;68467;50.960;0.314;2023-04-07T03:33:03;100126.02;;;4.43;100.00
64628;BME280;68467;50.960;0.314;2023-04-07T03:35:30;100123.55;;;3.71;100.00
64628;BME280;68467;50.960;0.314;2023-04-07T03:37:57;100123.10;;;3.47;100.00
64628;BME280;68467;50.960;0.314;2023-04-07T03:40:24;100125.62;;;4.17;100.00
64628;BME280;68467;50.960;0.314;2023-04-07T03:42:52;100126.45;;;4.64;100.00
64628;BME280;68467;50.960;0.314;2023-04-07T03:45:19;100130.43;;;3.64;100.00
64628;BME280;68467;50.960;0.314;2023-04-07T03:47:46;100133.67;;;4.05;100.00
64628;BME280;68467;50.960;0.314;2023-04-07T03:50:13;100132.38;;;3.96;100.00
64628;BME280;68467;50.960;0.314;2023-04-07T03:52:40;100132.50;;;4.16;100.00
64628;BME280;68467;50.960;0.314;2023-04-07T03:55:08;100134.30;;;4.24;100.00
64628;BME280;68467;50.960;0.314;2023-04-07T03:57:36;100136.45;;;3.89;100.00
64628;BME280;68467;50.960;0.314;2023-04-07T04:00:05;100138.96;;;3.80;100.00
64628;BME280;68467;50.960;0.314;2023-04-07T04:02:32;100134.75;;;3.80;100.00
64628;BME280;68467;50.960;0.314;2023-04-07T04:04:59;100133.87;;;3.93;100.00
64628;BME280;68467;50.960;0.314;2023-04-07T04:07:26;100130.07;;;4.35;100.00
64628;BME280;68467;50.960;0.314;2023-04-07T04:09:54;100126.56;;;4.92;100.00
64628;BME280;68467;50.960;0.314;2023-04-07T04:12:21;100126.60;;;4.81;100.00
64628;BME280;68467;50.960;0.314;2023-04-07T04:14:48;100128.75;;;4.59;100.00
64628;BME280;68467;50.960;0.314;2023-04-07T04:17:15;100131.13;;;4.26;100.00
64628;BME280;68467;50.960;0.314;2023-04-07T04:19:42;100126.27;;;4.58;100.00
64628;BME280;68467;50.960;0.314;2023-04-07T04:22:10;100132.79;;;4.33;100.00
64628;BME280;68467;50.960;0.314;2023-04-07T04:24:37;100132.62;;;3.52;100.00
64628;BME280;68467;50.960;0.314;2023-04-07T04:27:04;100132.13;;;3.83;100.00
64628;BME280;68467;50.960;0.314;2023-04-07T04:29:32;100127.76;;;3.43;100.00
64628;BME280;68467;50.960;0.314;2023-04-07T04:31:59;100133.29;;;3.80;100.00
64628;BME280;68467;50.960;0.314;2023-04-07T04:34:26;100134.90;;;4.70;100.00
64628;BME280;68467;50.960;0.314;2023-04-07T04:36:53;100134.46;;;3.87;100.00
64628;BME280;68467;50.960;0.314;2023-04-07T04:39:20;100139.08;;;2.98;100.00
64628;BME280;68467;50.960;0.314;2023-04-07T04:41:48;100141.26;;;3.29;100.00
64628;BME280;68467;50.960;0.314;2023-04-07T04:44:15;100143.58;;;3.53;100.00
64628;BME280;68467;50.960;0.314;2023-04-07T04:46:42;100147.45;;;4.33;100.00
64628;BME280;68467;50.960;0.314;2023-04-07T04:49:09;100155.02;;;4.05;100.00
64628;BME280;68467;50.960;0.314;2023-04-07T04:51:36;100159.82;;;3.67;100.00
64628;BME280;68467;50.960;0.314;2023-04-07T04:54:04;100161.54;;;3.17;100.00
64628;BME280;68467;50.960;0.314;2023-04-07T04:56:30;100160.54;;;3.80;100.00
64628;BME280;68467;50.960;0.314;2023-04-07T04:58:58;100153.99;;;4.21;100.00
64628;BME280;68467;50.960;0.314;2023-04-07T05:01:25;100159.64;;;3.94;100.00
64628;BME280;68467;50.960;0.314;2023-04-07T05:03:52;100164.09;;;4.52;100.00
64628;BME280;68467;50.960;0.314;2023-04-07T05:06:19;100158.13;;;4.93;100.00
64628;BME280;68467;50.960;0.314;2023-04-07T05:08:46;100159.01;;;4.86;100.00
64628;BME280;68467;50.960;0.314;2023-04-07T05:11:14;100161.55;;;4.68;100.00
64628;BME280;68467;50.960;0.314;2023-04-07T05:13:41;100161.24;;;4.96;100.00
64628;BME280;68467;50.960;0.314;2023-04-07T05:16:08;100162.02;;;5.20;100.00
64628;BME280;68467;50.960;0.314;2023-04-07T05:18:35;100163.49;;;4.81;100.00
64628;BME280;68467;50.960;0.314;2023-04-07T05:21:02;100162.36;;;5.03;100.00
64628;BME280;68467;50.960;0.314;2023-04-07T05:23:29;100160.71;;;5.40;100.00
64628;BME280;68467;50.960;0.314;2023-04-07T05:25:57;100166.62;;;4.73;100.00
64628;BME280;68467;50.960;0.314;2023-04-07T05:28:23;100163.11;;;5.72;100.00
64628;BME280;68467;50.960;0.314;2023-04-07T05:30:51;100171.25;;;4.38;100.00
64628;BME280;68467;50.960;0.314;2023-04-07T05:33:18;100169.00;;;4.59;100.00
64628;BME280;68467;50.960;0.314;2023-04-07T05:35:46;100171.07;;;3.97;100.00
64628;BME280;68467;50.960;0.314;2023-04-07T05:38:13;100168.99;;;4.00;100.00
64628;BME280;68467;50.960;0.314;2023-04-07T05:40:40;100165.54;;;3.93;100.00
64628;BME280;68467;50.960;0.314;2023-04-07T05:43:07;100171.96;;;4.19;100.00
64628;BME280;68467;50.960;0.314;2023-04-07T05:45:34;100174.41;;;2.91;100.00
64628;BME280;68467;50.960;0.314;2023-04-07T05:48:01;100173.34;;;3.33;100.00
64628;BME280;68467;50.960;0.314;2023-04-07T05:50:28;100177.97;;;2.85;100.00
64628;BME280;68467;50.960;0.314;2023-04-07T05:52:55;100178.65;;;3.16;100.00
64628;BME280;68467;50.960;0.314;2023-04-07T05:55:22;100183.92;;;3.42;100.00
64628;BME280;68467;50.960;0.314;2023-04-07T05:57:49;100185.48;;;3.35;100.00
64628;BME280;68467;50.960;0.314;2023-04-07T06:00:17;100186.58;;;3.79;100.00
64628;BME280;68467;50.960;0.314;2023-04-07T06:02:45;100191.02;;;3.76;100.00
64628;BME280;68467;50.960;0.314;2023-04-07T06:05:12;100193.41;;;4.67;100.00
64628;BME280;68467;50.960;0.314;2023-04-07T06:07:39;100195.08;;;4.37;100.00
64628;BME280;68467;50.960;0.314;2023-04-07T06:10:07;100202.82;;;4.34;100.00
64628;BME280;68467;50.960;0.314;2023-04-07T06:12:35;100207.28;;;4.13;100.00
64628;BME280;68467;50.960;0.314;2023-04-07T06:15:02;100207.99;;;4.34;100.00
64628;BME280;68467;50.960;0.314;2023-04-07T06:17:29;100211.81;;;3.95;100.00
64628;BME280;68467;50.960;0.314;2023-04-07T06:19:56;100219.31;;;4.33;100.00
64628;BME280;68467;50.960;0.314;2023-04-07T06:22:23;100222.95;;;3.47;100.00
64628;BME280;68467;50.960;0.314;2023-04-07T06:24:51;100226.76;;;3.49;100.00
64628;BME280;68467;50.960;0.314;2023-04-07T06:27:18;100226.38;;;3.87;100.00
64628;BME280;68467;50.960;0.314;2023-04-07T06:29:45;100229.99;;;3.75;100.00
64628;BME280;68467;50.960;0.314;2023-04-07T06:32:12;100227.02;;;3.97;100.00
64628;BME280;68467;50.960;0.314;2023-04-07T06:34:39;100230.77;;;3.91;100.00
64628;BME280;68467;50.960;0.314;2023-04-07T06:37:06;100232.22;;;3.45;100.00
64628;BME280;68467;50.960;0.314;2023-04-07T06:39:34;100234.80;;;4.08;100.00
64628;BME280;68467;50.960;0.314;2023-04-07T06:42:01;100240.47;;;3.50;100.00
64628;BME280;68467;50.960;0.314;2023-04-07T06:44:28;100244.46;;;4.46;100.00
64628;BME280;68467;50.960;0.314;2023-04-07T06:46:55;100246.39;;;4.66;100.00
64628;BME280;68467;50.960;0.314;2023-04-07T06:49:22;100246.66;;;4.57;100.00
64628;BME280;68467;50.960;0.314;2023-04-07T06:51:50;100251.98;;;3.89;100.00
64628;BME280;68467;50.960;0.314;2023-04-07T06:54:16;100250.70;;;4.34;100.00
64628;BME280;68467;50.960;0.314;2023-04-07T06:56:43;100255.18;;;5.01;100.00
64628;BME280;68467;50.960;0.314;2023-04-07T06:59:10;100254.50;;;4.49;100.00
64628;BME280;68467;50.960;0.314;2023-04-07T07:01:37;100259.43;;;4.65;100.00
64628;BME280;68467;50.960;0.314;2023-04-07T07:04:05;100260.81;;;4.56;100.00
64628;BME280;68467;50.960;0.314;2023-04-07T07:06:32;100262.95;;;4.36;100.00
64628;BME280;68467;50.960;0.314;2023-04-07T07:09:00;100264.49;;;4.10;100.00
64628;BME280;68467;50.960;0.314;2023-04-07T07:11:27;100265.88;;;4.45;100.00
64628;BME280;68467;50.960;0.314;2023-04-07T07:13:54;100267.40;;;4.45;100.00
64628;BME280;68467;50.960;0.314;2023-04-07T07:16:22;100267.97;;;4.87;100.00
64628;BME280;68467;50.960;0.314;2023-04-07T07:18:49;100269.54;;;4.59;100.00
64628;BME280;68467;50.960;0.314;2023-04-07T07:21:16;100269.13;;;4.83;100.00
64628;BME280;68467;50.960;0.314;2023-04-07T07:23:44;100268.31;;;5.09;100.00
64628;BME280;68467;50.960;0.314;2023-04-07T07:26:11;100268.01;;;5.64;100.00
64628;BME280;68467;50.960;0.314;2023-04-07T07:28:38;100273.64;;;5.56;100.00
64628;BME280;68467;50.960;0.314;2023-04-07T07:31:13;100276.65;;;5.40;100.00
64628;BME280;68467;50.960;0.314;2023-04-07T07:33:41;100278.25;;;5.76;100.00
64628;BME280;68467;50.960;0.314;2023-04-07T07:36:09;100280.55;;;5.42;100.00
64628;BME280;68467;50.960;0.314;2023-04-07T07:38:38;100280.48;;;5.96;100.00
64628;BME280;68467;50.960;0.314;2023-04-07T07:41:06;100280.37;;;6.72;100.00
64628;BME280;68467;50.960;0.314;2023-04-07T07:43:34;100284.75;;;5.82;100.00
64628;BME280;68467;50.960;0.314;2023-04-07T07:46:01;100286.92;;;6.16;100.00
64628;BME280;68467;50.960;0.314;2023-04-07T07:48:28;100289.06;;;6.16;100.00
64628;BME280;68467;50.960;0.314;2023-04-07T07:50:55;100291.99;;;6.72;100.00
64628;BME280;68467;50.960;0.314;2023-04-07T07:53:22;100295.66;;;6.36;100.00
64628;BME280;68467;50.960;0.314;2023-04-07T07:55:49;100299.48;;;7.29;100.00
64628;BME280;68467;50.960;0.314;2023-04-07T07:58:16;100300.95;;;7.34;100.00
64628;BME280;68467;50.960;0.314;2023-04-07T08:00:44;100302.58;;;6.86;100.00
64628;BME280;68467;50.960;0.314;2023-04-07T08:03:11;100304.41;;;7.22;100.00
64628;BME280;68467;50.960;0.314;2023-04-07T08:05:39;100300.60;;;8.22;100.00
64628;BME280;68467;50.960;0.314;2023-04-07T08:08:06;100301.15;;;8.05;100.00
64628;BME280;68467;50.960;0.314;2023-04-07T08:10:33;100303.15;;;7.80;100.00
64628;BME280;68467;50.960;0.314;2023-04-07T08:13:00;100301.59;;;7.82;100.00
64628;BME280;68467;50.960;0.314;2023-04-07T08:15:27;100300.13;;;8.88;100.00
64628;BME280;68467;50.960;0.314;2023-04-07T08:17:54;100300.80;;;9.40;100.00
64628;BME280;68467;50.960;0.314;2023-04-07T08:20:21;100300.95;;;9.31;100.00
64628;BME280;68467;50.960;0.314;2023-04-07T08:22:48;100305.24;;;7.98;100.00
64628;BME280;68467;50.960;0.314;2023-04-07T08:25:15;100306.39;;;9.25;100.00
64628;BME280;68467;50.960;0.314;2023-04-07T08:27:42;100306.79;;;8.83;100.00
64628;BME280;68467;50.960;0.314;2023-04-07T08:30:09;100308.87;;;10.15;100.00
64628;BME280;68467;50.960;0.314;2023-04-07T08:32:38;100315.37;;;9.55;100.00
64628;BME280;68467;50.960;0.314;2023-04-07T08:35:08;100318.61;;;9.95;100.00
64628;BME280;68467;50.960;0.314;2023-04-07T08:37:37;100323.62;;;9.11;100.00
64628;BME280;68467;50.960;0.314;2023-04-07T08:40:05;100323.42;;;8.67;100.00
64628;BME280;68467;50.960;0.314;2023-04-07T08:42:34;100328.82;;;8.66;100.00
64628;BME280;68467;50.960;0.314;2023-04-07T08:45:04;100330.42;;;7.82;100.00
64628;BME280;68467;50.960;0.314;2023-04-07T08:47:33;100337.14;;;8.00;100.00
64628;BME280;68467;50.960;0.314;2023-04-07T08:50:03;100335.39;;;7.64;100.00
64628;BME280;68467;50.960;0.314;2023-04-07T08:52:33;100338.59;;;8.17;100.00
64628;BME280;68467;50.960;0.314;2023-04-07T08:55:03;100336.05;;;8.56;100.00
64628;BME280;68467;50.960;0.314;2023-04-07T08:57:32;100336.81;;;7.81;100.00
64628;BME280;68467;50.960;0.314;2023-04-07T09:00:00;100339.29;;;8.05;100.00
64628;BME280;68467;50.960;0.314;2023-04-07T09:02:28;100338.43;;;7.98;100.00
64628;BME280;68467;50.960;0.314;2023-04-07T09:04:56;100339.35;;;8.20;100.00
64628;BME280;68467;50.960;0.314;2023-04-07T09:07:23;100340.62;;;9.37;100.00
64628;BME280;68467;50.960;0.314;2023-04-07T09:09:51;100337.92;;;8.92;100.00
64628;BME280;68467;50.960;0.314;2023-04-07T09:12:18;100337.45;;;9.77;100.00
64628;BME280;68467;50.960;0.314;2023-04-07T09:14:45;100337.69;;;10.64;100.00
64628;BME280;68467;50.960;0.314;2023-04-07T09:17:12;100342.42;;;9.34;100.00
64628;BME280;68467;50.960;0.314;2023-04-07T09:19:39;100340.72;;;8.96;100.00
64628;BME280;68467;50.960;0.314;2023-04-07T09:22:06;100343.37;;;9.57;100.00
64628;BME280;68467;50.960;0.314;2023-04-07T09:24:33;100344.19;;;9.76;100.00
64628;BME280;68467;50.960;0.314;2023-04-07T09:27:09;100345.43;;;9.77;100.00
64628;BME280;68467;50.960;0.314;2023-04-07T09:29:38;100346.11;;;9.53;100.00
64628;BME280;68467;50.960;0.314;2023-04-07T09:32:05;100341.66;;;10.51;100.00
64628;BME280;68467;50.960;0.314;2023-04-07T09:34:34;100338.42;;;10.82;100.00
64628;BME280;68467;50.960;0.314;2023-04-07T09:37:04;100338.98;;;10.26;100.00
64628;BME280;68467;50.960;0.314;2023-04-07T09:39:32;100339.08;;;11.03;100.00
64628;BME280;68467;50.960;0.314;2023-04-07T09:42:10;100342.59;;;10.78;100.00
64628;BME280;68467;50.960;0.314;2023-04-07T09:44:39;100348.42;;;9.93;100.00
64628;BME280;68467;50.960;0.314;2023-04-07T09:47:06;100349.89;;;10.33;100.00
64628;BME280;68467;50.960;0.314;2023-04-07T09:49:33;100351.30;;;9.56;100.00
64628;BME280;68467;50.960;0.314;2023-04-07T09:52:14;100350.29;;;10.04;100.00
64628;BME280;68467;50.960;0.314;2023-04-07T09:54:41;100345.94;;;10.68;100.00
64628;BME280;68467;50.960;0.314;2023-04-07T09:57:09;100347.79;;;10.02;100.00
64628;BME280;68467;50.960;0.314;2023-04-07T09:59:38;100347.52;;;10.10;100.00
64628;BME280;68467;50.960;0.314;2023-04-07T10:02:07;100349.03;;;8.62;100.00
64628;BME280;68467;50.960;0.314;2023-04-07T10:04:34;100347.77;;;9.82;100.00
64628;BME280;68467;50.960;0.314;2023-04-07T10:07:02;100347.23;;;9.91;100.00
64628;BME280;68467;50.960;0.314;2023-04-07T10:09:30;100346.42;;;10.37;100.00
64628;BME280;68467;50.960;0.314;2023-04-07T10:11:58;100341.42;;;11.28;100.00
64628;BME280;68467;50.960;0.314;2023-04-07T10:14:27;100347.85;;;10.45;100.00
64628;BME280;68467;50.960;0.314;2023-04-07T10:16:56;100346.62;;;10.20;100.00
64628;BME280;68467;50.960;0.314;2023-04-07T10:19:24;100347.16;;;10.71;100.00
64628;BME280;68467;50.960;0.314;2023-04-07T10:21:57;100346.46;;;9.54;100.00
64628;BME280;68467;50.960;0.314;2023-04-07T10:24:36;100342.07;;;10.93;100.00
64628;BME280;68467;50.960;0.314;2023-04-07T10:27:13;100338.67;;;11.46;100.00
64628;BME280;68467;50.960;0.314;2023-04-07T10:29:45;100337.63;;;11.74;100.00
64628;BME280;68467;50.960;0.314;2023-04-07T10:32:14;100337.40;;;11.32;100.00
64628;BME280;68467;50.960;0.314;2023-04-07T10:34:55;100332.48;;;11.37;100.00
64628;BME280;68467;50.960;0.314;2023-04-07T10:37:24;100335.21;;;11.45;100.00
64628;BME280;68467;50.960;0.314;2023-04-07T10:40:26;100338.07;;;10.92;100.00
64628;BME280;68467;50.960;0.314;2023-04-07T10:42:54;100331.67;;;11.51;100.00
64628;BME280;68467;50.960;0.314;2023-04-07T10:45:52;100338.72;;;11.42;100.00
64628;BME280;68467;50.960;0.314;2023-04-07T10:48:20;100330.03;;;12.18;100.00
64628;BME280;68467;50.960;0.314;2023-04-07T10:51:15;100328.11;;;12.76;100.00
64628;BME280;68467;50.960;0.314;2023-04-07T10:54:22;100329.39;;;12.84;100.00
64628;BME280;68467;50.960;0.314;2023-04-07T10:57:07;100328.27;;;13.18;100.00
64628;BME280;68467;50.960;0.314;2023-04-07T10:59:35;100333.92;;;11.74;100.00
64628;BME280;68467;50.960;0.314;2023-04-07T11:02:36;100336.67;;;11.93;100.00
64628;BME280;68467;50.960;0.314;2023-04-07T11:05:03;100338.88;;;11.36;100.00
64628;BME280;68467;50.960;0.314;2023-04-07T11:07:48;100332.83;;;11.42;100.00
64628;BME280;68467;50.960;0.314;2023-04-07T11:10:17;100335.10;;;11.55;100.00
64628;BME280;68467;50.960;0.314;2023-04-07T11:12:57;100338.09;;;11.91;100.00
64628;BME280;68467;50.960;0.314;2023-04-07T11:15:24;100339.44;;;12.46;100.00
64628;BME280;68467;50.960;0.314;2023-04-07T11:18:23;100334.48;;;11.63;100.00
64628;BME280;68467;50.960;0.314;2023-04-07T11:20:53;100330.74;;;11.98;100.00
64628;BME280;68467;50.960;0.314;2023-04-07T11:23:22;100334.08;;;11.51;100.00
64628;BME280;68467;50.960;0.314;2023-04-07T11:25:58;100337.30;;;11.91;100.00
64628;BME280;68467;50.960;0.314;2023-04-07T11:28:26;100337.76;;;12.26;100.00
64628;BME280;68467;50.960;0.314;2023-04-07T11:30:53;100340.27;;;12.05;100.00
64628;BME280;68467;50.960;0.314;2023-04-07T11:33:22;100335.29;;;12.48;100.00
64628;BME280;68467;50.960;0.314;2023-04-07T11:35:52;100339.38;;;12.91;93.43
64628;BME280;68467;50.960;0.314;2023-04-07T11:38:23;100335.16;;;13.31;95.94
64628;BME280;68467;50.960;0.314;2023-04-07T11:40:50;100331.92;;;14.02;89.09
64628;BME280;68467;50.960;0.314;2023-04-07T11:43:20;100334.64;;;14.02;89.76
64628;BME280;68467;50.960;0.314;2023-04-07T11:46:03;100339.76;;;13.64;91.69
64628;BME280;68467;50.960;0.314;2023-04-07T11:48:33;100337.72;;;13.85;90.38
64628;BME280;68467;50.960;0.314;2023-04-07T11:51:01;100341.20;;;12.53;92.17
64628;BME280;68467;50.960;0.314;2023-04-07T11:53:32;100341.78;;;12.87;90.32
64628;BME280;68467;50.960;0.314;2023-04-07T11:56:02;100346.81;;;12.20;92.65
64628;BME280;68467;50.960;0.314;2023-04-07T11:58:34;100348.61;;;12.94;92.00
64628;BME280;68467;50.960;0.314;2023-04-07T12:01:04;100346.68;;;12.60;89.67
64628;BME280;68467;50.960;0.314;2023-04-07T12:03:32;100343.38;;;13.32;89.76
64628;BME280;68467;50.960;0.314;2023-04-07T12:05:59;100341.95;;;14.47;94.27
64628;BME280;68467;50.960;0.314;2023-04-07T12:08:43;100339.25;;;15.63;83.28
64628;BME280;68467;50.960;0.314;2023-04-07T12:11:10;100336.25;;;15.03;76.54
64628;BME280;68467;50.960;0.314;2023-04-07T12:13:37;100337.37;;;14.62;83.70
64628;BME280;68467;50.960;0.314;2023-04-07T12:16:05;100336.66;;;14.72;87.53
64628;BME280;68467;50.960;0.314;2023-04-07T12:18:38;100335.59;;;14.54;95.12
64628;BME280;68467;50.960;0.314;2023-04-07T12:21:05;100339.39;;;15.02;80.29
64628;BME280;68467;50.960;0.314;2023-04-07T12:23:32;100343.79;;;14.23;86.42
64628;BME280;68467;50.960;0.314;2023-04-07T12:25:59;100342.80;;;13.98;88.31
64628;BME280;68467;50.960;0.314;2023-04-07T12:28:26;100337.07;;;15.21;75.63
64628;BME280;68467;50.960;0.314;2023-04-07T12:30:53;100333.23;;;15.34;74.89
64628;BME280;68467;50.960;0.314;2023-04-07T12:33:21;100334.25;;;15.18;79.54
64628;BME280;68467;50.960;0.314;2023-04-07T12:35:48;100335.31;;;14.32;88.80
64628;BME280;68467;50.960;0.314;2023-04-07T12:38:14;100337.27;;;14.63;77.59
64628;BME280;68467;50.960;0.314;2023-04-07T12:40:41;100343.55;;;13.59;81.49
64628;BME280;68467;50.960;0.314;2023-04-07T12:43:09;100342.58;;;13.27;87.17
64628;BME280;68467;50.960;0.314;2023-04-07T12:45:36;100342.74;;;12.19;85.15
64628;BME280;68467;50.960;0.314;2023-04-07T12:48:03;100341.17;;;13.32;81.80
64628;BME280;68467;50.960;0.314;2023-04-07T12:50:30;100338.49;;;14.56;78.47
64628;BME280;68467;50.960;0.314;2023-04-07T12:52:57;100334.13;;;14.21;81.17
64628;BME280;68467;50.960;0.314;2023-04-07T12:55:29;100331.48;;;14.31;83.15
64628;BME280;68467;50.960;0.314;2023-04-07T12:57:56;100329.22;;;15.06;75.36